Time;durP1;ratioP1;P1;durP2;ratioP2;P2;SDS_P1;SDS_P2;PMS_P1;PMS_P2;Temp;Humidity;BMP_temperature;BMP_pressure;BME280_temperature;BME280_humidity;BME280_pressure;Samples;Min_cycle;Max_cycle;Signal;HPM_P1;HPM_P2
2022/11/13 00:00:36;0.00;0.00;0.62;0.00;0.00;0.62;4.97;4.40;;;25.10;25.20;;;;;;2268013;61;20398;-72
2022/11/13 00:03:39;0.00;0.00;0.62;0.00;0.00;0.62;5.20;4.60;;;25.10;25.20;;;;;;2267220;61;20398;-70
2022/11/13 00:06:44;0.00;0.00;0.62;0.00;0.00;0.62;6.60;5.23;;;25.10;25.20;;;;;;2267878;61;20374;-71
2022/11/13 00:09:47;0.00;0.00;0.62;0.00;0.00;0.62;6.00;5.07;;;25.10;25.20;;;;;;2266677;61;20359;-71
2022/11/13 00:12:52;0.00;0.00;0.62;0.00;0.00;0.62;6.97;5.07;;;25.00;25.10;;;;;;2268177;61;20934;-71
2022/11/13 00:15:58;0.00;0.00;0.62;0.00;0.00;0.62;5.70;4.87;;;25.00;25.20;;;;;;2267442;61;20371;-72
2022/11/13 00:19:01;0.00;0.00;0.62;0.00;0.00;0.62;5.47;4.87;;;25.00;25.10;;;;;;2267948;61;20359;-70
2022/11/13 00:22:06;0.00;0.00;0.62;0.00;0.00;0.62;5.70;5.10;;;25.00;25.10;;;;;;2267236;61;20371;-69
2022/11/13 00:25:10;0.00;0.00;0.62;0.00;0.00;0.62;4.80;4.40;;;24.90;25.00;;;;;;2267478;61;20390;-69
2022/11/13 00:28:14;0.00;0.00;0.62;0.00;0.00;0.62;5.20;4.70;;;24.90;25.00;;;;;;2268021;61;20434;-73
2022/11/13 00:31:18;0.00;0.00;0.62;0.00;0.00;0.62;6.07;5.30;;;24.90;25.00;;;;;;2266795;61;20442;-68
2022/11/13 00:34:21;0.00;0.00;0.62;0.00;0.00;0.62;5.37;4.83;;;24.90;25.00;;;;;;2268172;61;20381;-72
2022/11/13 00:37:26;0.00;0.00;0.62;0.00;0.00;0.62;5.20;4.67;;;24.90;25.60;;;;;;2267355;61;20417;-70
2022/11/13 00:40:30;0.00;0.00;0.62;0.00;0.00;0.62;6.20;5.33;;;24.80;25.00;;;;;;2267530;61;20367;-69
2022/11/13 00:43:33;0.00;0.00;0.62;0.00;0.00;0.62;7.67;5.50;;;24.80;25.00;;;;;;2267410;61;20391;-72
2022/11/13 00:46:37;0.00;0.00;0.62;0.00;0.00;0.62;4.67;4.27;;;24.80;25.00;;;;;;2267186;61;20431;-72
2022/11/13 00:49:41;0.00;0.00;0.62;0.00;0.00;0.62;6.20;5.30;;;24.70;24.90;;;;;;2267776;61;20359;-71
2022/11/13 00:52:46;0.00;0.00;0.62;0.00;0.00;0.62;5.47;4.63;;;24.70;24.90;;;;;;2267686;61;20370;-71
2022/11/13 00:55:49;0.00;0.00;0.62;0.00;0.00;0.62;6.20;4.83;;;24.70;24.90;;;;;;2267404;61;20366;-72
2022/11/13 00:58:53;0.00;0.00;0.62;0.00;0.00;0.62;4.60;4.20;;;24.70;25.00;;;;;;2267877;61;20985;-71
2022/11/13 01:01:57;0.00;0.00;0.62;0.00;0.00;0.62;5.30;4.77;;;24.60;24.90;;;;;;2267189;61;20381;-70
2022/11/13 01:05:00;0.00;0.00;0.62;0.00;0.00;0.62;5.23;4.37;;;24.60;24.90;;;;;;2267671;61;20428;-71
2022/11/13 01:08:06;0.00;0.00;0.62;0.00;0.00;0.62;5.83;5.23;;;24.60;24.90;;;;;;2267693;61;20886;-70
2022/11/13 01:11:13;0.00;0.00;0.62;0.00;0.00;0.62;4.50;4.10;;;24.60;24.90;;;;;;2267603;61;20766;-72
2022/11/13 01:14:17;0.00;0.00;0.62;0.00;0.00;0.62;4.40;4.00;;;24.60;24.90;;;;;;2267368;61;20503;-71
2022/11/13 01:17:21;0.00;0.00;0.62;0.00;0.00;0.62;5.33;4.83;;;24.50;24.80;;;;;;2267243;61;20421;-74
2022/11/13 01:20:25;0.00;0.00;0.62;0.00;0.00;0.62;5.70;4.57;;;24.50;24.90;;;;;;2267898;61;20350;-73
2022/11/13 01:23:30;0.00;0.00;0.62;0.00;0.00;0.62;4.30;3.90;;;24.50;24.90;;;;;;2266851;61;20999;-71
2022/11/13 01:26:34;0.00;0.00;0.62;0.00;0.00;0.62;4.80;4.37;;;24.50;24.90;;;;;;2268305;61;20412;-70
2022/11/13 01:29:37;0.00;0.00;0.62;0.00;0.00;0.62;5.23;4.73;;;24.40;24.80;;;;;;2267028;61;20370;-70
2022/11/13 01:32:47;0.00;0.00;0.62;0.00;0.00;0.62;5.30;4.40;;;24.50;24.90;;;;;;2267511;61;20375;-71
2022/11/13 01:35:51;0.00;0.00;0.62;0.00;0.00;0.62;5.30;4.80;;;24.40;24.90;;;;;;2267710;61;20759;-74
2022/11/13 01:38:56;0.00;0.00;0.62;0.00;0.00;0.62;5.27;4.50;;;24.40;24.90;;;;;;2267200;61;20357;-71
2022/11/13 01:42:00;0.00;0.00;0.62;0.00;0.00;0.62;6.10;5.37;;;24.30;24.80;;;;;;2267573;61;20444;-73
2022/11/13 01:46:05;0.00;0.00;0.62;0.00;0.00;0.62;5.13;4.63;;;24.30;24.80;;;;;;2267639;61;20474;-72
2022/11/13 01:49:27;0.00;0.00;0.62;0.00;0.00;0.62;5.23;4.73;;;24.30;24.80;;;;;;2267547;61;20432;-70
2022/11/13 01:52:37;0.00;0.00;0.62;0.00;0.00;0.62;5.97;4.67;;;24.30;24.80;;;;;;2267371;61;20382;-71
2022/11/13 01:55:42;0.00;0.00;0.62;0.00;0.00;0.62;5.70;4.63;;;24.20;24.80;;;;;;2267545;61;20809;-71
2022/11/13 01:58:53;0.00;0.00;0.62;0.00;0.00;0.62;5.20;4.47;;;24.20;24.80;;;;;;2267561;61;20477;-74
2022/11/13 02:01:57;0.00;0.00;0.62;0.00;0.00;0.62;5.00;4.40;;;24.20;24.80;;;;;;2266832;61;20498;-70
2022/11/13 02:05:00;0.00;0.00;0.62;0.00;0.00;0.62;5.30;4.80;;;24.20;24.80;;;;;;2267949;61;20347;-69
2022/11/13 02:08:04;0.00;0.00;0.62;0.00;0.00;0.62;6.20;4.73;;;24.20;24.80;;;;;;2266675;61;20363;-69
2022/11/13 02:11:10;0.00;0.00;0.62;0.00;0.00;0.62;6.90;4.53;;;24.10;24.70;;;;;;2268058;61;20359;-73
2022/11/13 02:14:14;0.00;0.00;0.62;0.00;0.00;0.62;5.00;4.50;;;24.10;24.70;;;;;;2267503;61;20344;-71
2022/11/13 02:17:24;0.00;0.00;0.62;0.00;0.00;0.62;5.40;4.87;;;24.10;24.70;;;;;;2267394;61;20405;-69
2022/11/13 02:20:36;0.00;0.00;0.62;0.00;0.00;0.62;5.17;4.67;;;24.10;24.70;;;;;;2267451;61;20425;-73
2022/11/13 02:23:47;0.00;0.00;0.62;0.00;0.00;0.62;4.80;4.10;;;24.10;24.70;;;;;;2267111;61;20386;-73
2022/11/13 02:26:55;0.00;0.00;0.62;0.00;0.00;0.62;5.73;4.70;;;24.00;24.70;;;;;;2267555;61;20456;-70
2022/11/13 02:30:10;0.00;0.00;0.62;0.00;0.00;0.62;5.30;4.77;;;24.10;24.70;;;;;;2267387;61;20716;-71
2022/11/13 02:33:23;0.00;0.00;0.62;0.00;0.00;0.62;4.33;3.93;;;24.00;24.70;;;;;;2268696;61;20905;-71
2022/11/13 02:36:28;0.00;0.00;0.62;0.00;0.00;0.62;5.00;4.47;;;24.00;24.70;;;;;;2268189;61;20874;-73
2022/11/13 02:39:32;0.00;0.00;0.62;0.00;0.00;0.62;4.37;3.87;;;24.00;24.70;;;;;;2268231;61;20354;-71
2022/11/13 02:42:37;0.00;0.00;0.62;0.00;0.00;0.62;6.13;4.27;;;23.90;24.60;;;;;;2267932;61;20428;-69
2022/11/13 02:45:40;0.00;0.00;0.62;0.00;0.00;0.62;5.77;4.90;;;23.90;24.60;;;;;;2267752;61;20785;-72
2022/11/13 02:48:44;0.00;0.00;0.62;0.00;0.00;0.62;5.07;4.50;;;23.90;25.20;;;;;;2267924;61;20767;-68
2022/11/13 02:51:48;0.00;0.00;0.62;0.00;0.00;0.62;5.73;4.27;;;23.90;24.60;;;;;;2267858;61;20355;-72
2022/11/13 02:54:51;0.00;0.00;0.62;0.00;0.00;0.62;4.80;4.40;;;23.90;24.60;;;;;;2268848;61;20746;-72
2022/11/13 02:57:56;0.00;0.00;0.62;0.00;0.00;0.62;5.30;4.67;;;23.90;24.60;;;;;;2268115;61;20355;-72
2022/11/13 03:01:01;0.00;0.00;0.62;0.00;0.00;0.62;5.00;4.60;;;23.80;24.60;;;;;;2268193;61;20444;-73
2022/11/13 03:04:05;0.00;0.00;0.62;0.00;0.00;0.62;4.53;4.10;;;23.80;24.60;;;;;;2268105;61;20537;-71
2022/11/13 03:07:08;0.00;0.00;0.62;0.00;0.00;0.62;4.50;4.10;;;23.80;24.60;;;;;;2267173;61;20860;-73
2022/11/13 03:10:11;0.00;0.00;0.62;0.00;0.00;0.62;4.83;4.33;;;23.80;24.60;;;;;;2268117;61;20355;-72
2022/11/13 03:13:16;0.00;0.00;0.62;0.00;0.00;0.62;4.50;4.10;;;23.80;24.60;;;;;;2267890;61;20960;-70
2022/11/13 03:16:21;0.00;0.00;0.62;0.00;0.00;0.62;4.57;4.17;;;23.80;24.60;;;;;;2267625;61;20429;-71
2022/11/13 03:19:25;0.00;0.00;0.62;0.00;0.00;0.62;5.47;4.90;;;23.70;24.50;;;;;;2268101;61;20442;-74
2022/11/13 03:22:28;0.00;0.00;0.62;0.00;0.00;0.62;4.90;4.43;;;23.70;24.60;;;;;;2267408;61;20402;-70
2022/11/13 03:25:33;0.00;0.00;0.62;0.00;0.00;0.62;5.10;4.33;;;23.70;24.60;;;;;;2268283;61;20358;-70
2022/11/13 03:28:38;0.00;0.00;0.62;0.00;0.00;0.62;4.90;4.40;;;23.70;24.60;;;;;;2267769;61;20409;-70
2022/11/13 03:31:41;0.00;0.00;0.62;0.00;0.00;0.62;5.03;4.57;;;23.70;24.60;;;;;;2268222;61;20378;-73
2022/11/13 03:34:45;0.00;0.00;0.62;0.00;0.00;0.62;6.53;4.83;;;23.70;24.60;;;;;;2267677;61;20355;-73
2022/11/13 03:37:49;0.00;0.00;0.62;0.00;0.00;0.62;5.10;4.53;;;23.60;24.50;;;;;;2267587;61;20359;-73
2022/11/13 03:40:52;0.00;0.00;0.62;0.00;0.00;0.62;9.00;5.47;;;23.60;24.50;;;;;;2268131;61;20422;-70
2022/11/13 03:43:57;0.00;0.00;0.62;0.00;0.00;0.62;5.43;4.93;;;23.60;24.50;;;;;;2267040;61;20901;-71
2022/11/13 03:47:01;0.00;0.00;0.62;0.00;0.00;0.62;5.30;4.70;;;23.60;24.50;;;;;;2268289;61;20374;-69
2022/11/13 03:50:05;0.00;0.00;0.62;0.00;0.00;0.62;4.77;4.37;;;23.60;24.50;;;;;;2267415;61;20355;-72
2022/11/13 03:53:09;0.00;0.00;0.62;0.00;0.00;0.62;5.27;4.77;;;23.50;24.50;;;;;;2267748;61;20463;-71
2022/11/13 03:56:13;0.00;0.00;0.62;0.00;0.00;0.62;6.00;5.40;;;23.50;24.50;;;;;;2268055;61;20359;-72
2022/11/13 03:59:18;0.00;0.00;0.62;0.00;0.00;0.62;5.73;5.23;;;23.50;24.50;;;;;;2267333;61;20466;-70
2022/11/13 04:02:21;0.00;0.00;0.62;0.00;0.00;0.62;6.67;6.07;;;23.50;24.50;;;;;;2267717;61;20918;-69
2022/11/13 04:05:25;0.00;0.00;0.62;0.00;0.00;0.62;8.10;5.33;;;23.50;24.50;;;;;;2267890;61;20351;-72
2022/11/13 04:08:28;0.00;0.00;0.62;0.00;0.00;0.62;6.10;5.50;;;23.50;25.00;;;;;;2267958;61;20911;-70
2022/11/13 04:11:32;0.00;0.00;0.62;0.00;0.00;0.62;8.50;5.90;;;23.50;24.50;;;;;;2267733;61;20359;-73
2022/11/13 04:14:37;0.00;0.00;0.62;0.00;0.00;0.62;5.17;4.50;;;23.40;24.40;;;;;;2267686;61;20390;-72
2022/11/13 04:17:40;0.00;0.00;0.62;0.00;0.00;0.62;6.13;5.17;;;23.40;24.40;;;;;;2267504;61;20390;-70
2022/11/13 04:20:43;0.00;0.00;0.62;0.00;0.00;0.62;6.70;5.87;;;23.40;24.40;;;;;;2267590;61;20363;-69
2022/11/13 04:23:47;0.00;0.00;0.62;0.00;0.00;0.62;5.67;5.07;;;23.40;24.40;;;;;;2267756;61;20990;-71
2022/11/13 04:26:50;0.00;0.00;0.62;0.00;0.00;0.62;5.80;5.13;;;23.40;24.40;;;;;;2267780;61;20412;-74
2022/11/13 04:29:55;0.00;0.00;0.62;0.00;0.00;0.62;4.67;4.27;;;23.30;24.30;;;;;;2267254;61;20358;-73
2022/11/13 04:32:59;0.00;0.00;0.62;0.00;0.00;0.62;7.10;5.50;;;23.30;24.40;;;;;;2267828;61;20383;-72
2022/11/13 04:36:03;0.00;0.00;0.62;0.00;0.00;0.62;6.37;5.40;;;23.30;24.40;;;;;;2267070;61;20701;-71
2022/11/13 04:39:07;0.00;0.00;0.62;0.00;0.00;0.62;5.93;5.33;;;23.30;24.40;;;;;;2267884;61;20354;-73
2022/11/13 04:45:35;0.00;0.00;0.62;0.00;0.00;0.62;6.37;5.67;;;23.30;24.40;;;;;;2267795;61;20410;-73
2022/11/13 04:48:39;0.00;0.00;0.62;0.00;0.00;0.62;6.80;4.70;;;23.20;24.30;;;;;;2267712;61;20488;-71
2022/11/13 04:51:43;0.00;0.00;0.62;0.00;0.00;0.62;5.50;4.70;;;23.20;24.80;;;;;;2266851;61;20437;-73
2022/11/13 04:54:46;0.00;0.00;0.62;0.00;0.00;0.62;5.57;4.97;;;23.20;24.30;;;;;;2268072;61;20351;-71
2022/11/13 04:57:54;0.00;0.00;0.62;0.00;0.00;0.62;5.83;5.17;;;23.20;24.30;;;;;;2266907;61;20382;-72
2022/11/13 05:00:59;0.00;0.00;0.62;0.00;0.00;0.62;5.50;4.67;;;23.20;24.30;;;;;;2268014;61;20363;-70
2022/11/13 05:04:03;0.00;0.00;0.62;0.00;0.00;0.62;5.50;4.80;;;23.10;24.20;;;;;;2267261;61;20760;-69
2022/11/13 05:07:07;0.00;0.00;0.62;0.00;0.00;0.62;4.80;4.30;;;23.10;24.20;;;;;;2267265;61;20428;-72
2022/11/13 05:10:10;0.00;0.00;0.62;0.00;0.00;0.62;7.80;5.80;;;23.10;24.20;;;;;;2267594;61;20360;-72
2022/11/13 05:13:14;0.00;0.00;0.62;0.00;0.00;0.62;5.90;5.03;;;23.10;24.30;;;;;;2266740;61;20375;-70
2022/11/13 05:16:19;0.00;0.00;0.62;0.00;0.00;0.62;5.00;4.53;;;23.10;24.20;;;;;;2267945;61;20347;-73
2022/11/13 05:19:23;0.00;0.00;0.62;0.00;0.00;0.62;5.77;4.80;;;23.10;24.20;;;;;;2267255;61;20394;-72
2022/11/13 05:22:26;0.00;0.00;0.62;0.00;0.00;0.62;4.63;4.20;;;23.10;24.20;;;;;;2267562;61;20394;-72
2022/11/13 05:25:31;0.00;0.00;0.62;0.00;0.00;0.62;5.57;4.80;;;23.10;24.20;;;;;;2267459;61;20452;-71
2022/11/13 05:28:35;0.00;0.00;0.62;0.00;0.00;0.62;5.40;4.43;;;23.00;24.10;;;;;;2267409;61;20862;-72
2022/11/13 05:31:39;0.00;0.00;0.62;0.00;0.00;0.62;5.00;4.47;;;23.00;24.20;;;;;;2267436;61;20413;-69
2022/11/13 05:34:43;0.00;0.00;0.62;0.00;0.00;0.62;5.73;5.03;;;23.00;24.20;;;;;;2267215;61;20355;-71
2022/11/13 05:37:46;0.00;0.00;0.62;0.00;0.00;0.62;4.63;4.20;;;23.00;24.20;;;;;;2267825;61;20363;-72
2022/11/13 05:40:50;0.00;0.00;0.62;0.00;0.00;0.62;4.90;4.40;;;23.00;24.20;;;;;;2266692;61;20362;-72
2022/11/13 05:43:53;0.00;0.00;0.62;0.00;0.00;0.62;6.00;5.17;;;22.90;24.20;;;;;;2267244;61;20383;-71
2022/11/13 05:46:58;0.00;0.00;0.62;0.00;0.00;0.62;4.30;3.90;;;22.90;24.20;;;;;;2267646;61;20448;-71
2022/11/13 05:50:02;0.00;0.00;0.62;0.00;0.00;0.62;5.63;5.03;;;22.90;24.20;;;;;;2266893;61;20421;-71
2022/11/13 05:53:06;0.00;0.00;0.62;0.00;0.00;0.62;4.60;3.93;;;22.90;24.20;;;;;;2267531;61;20374;-67
2022/11/13 05:56:11;0.00;0.00;0.62;0.00;0.00;0.62;4.73;4.23;;;22.90;24.20;;;;;;2267532;61;20886;-70
2022/11/13 05:59:15;0.00;0.00;0.62;0.00;0.00;0.62;4.67;3.90;;;22.90;24.20;;;;;;2267463;61;20355;-72
2022/11/13 06:02:20;0.00;0.00;0.62;0.00;0.00;0.62;4.70;4.20;;;22.90;24.20;;;;;;2267930;61;20984;-70
2022/11/13 06:05:23;0.00;0.00;0.62;0.00;0.00;0.62;5.17;3.90;;;22.80;24.10;;;;;;2268002;61;20409;-70
2022/11/13 06:08:27;0.00;0.00;0.62;0.00;0.00;0.62;5.33;4.83;;;22.80;24.10;;;;;;2268462;61;20462;-70
2022/11/13 06:11:31;0.00;0.00;0.62;0.00;0.00;0.62;8.13;4.37;;;22.80;24.10;;;;;;2268068;61;20363;-72
2022/11/13 06:14:35;0.00;0.00;0.62;0.00;0.00;0.62;6.40;4.70;;;22.80;24.10;;;;;;2268005;61;20355;-73
2022/11/13 06:17:44;0.00;0.00;0.62;0.00;0.00;0.62;4.83;4.30;;;22.80;24.10;;;;;;2268159;61;20363;-74
2022/11/13 06:20:47;0.00;0.00;0.62;0.00;0.00;0.62;4.93;4.47;;;22.80;24.10;;;;;;2267478;61;20363;-73
2022/11/13 06:23:51;0.00;0.00;0.62;0.00;0.00;0.62;4.43;4.03;;;22.70;24.10;;;;;;2268169;61;20390;-71
2022/11/13 06:26:55;0.00;0.00;0.62;0.00;0.00;0.62;5.17;4.67;;;22.70;24.10;;;;;;2267184;61;20753;-74
2022/11/13 06:29:58;0.00;0.00;0.62;0.00;0.00;0.62;4.57;4.17;;;22.70;24.10;;;;;;2268347;61;20409;-72
2022/11/13 06:33:03;0.00;0.00;0.62;0.00;0.00;0.62;5.23;4.60;;;22.70;24.10;;;;;;2267803;61;20416;-75
2022/11/13 06:36:11;0.00;0.00;0.62;0.00;0.00;0.62;5.20;4.70;;;22.70;24.10;;;;;;2267926;61;20363;-74
2022/11/13 06:39:14;0.00;0.00;0.62;0.00;0.00;0.62;5.67;4.97;;;22.70;24.10;;;;;;2267910;61;20354;-75
2022/11/13 06:42:18;0.00;0.00;0.62;0.00;0.00;0.62;4.37;3.93;;;22.70;24.10;;;;;;2267624;61;20411;-74
2022/11/13 06:45:22;0.00;0.00;0.62;0.00;0.00;0.62;4.70;4.10;;;22.60;24.10;;;;;;2268553;61;20363;-71
2022/11/13 06:48:26;0.00;0.00;0.62;0.00;0.00;0.62;6.07;4.43;;;22.60;24.10;;;;;;2267974;61;20358;-75
2022/11/13 06:51:30;0.00;0.00;0.62;0.00;0.00;0.62;5.17;4.43;;;22.60;24.10;;;;;;2268263;61;20435;-75
2022/11/13 06:54:34;0.00;0.00;0.62;0.00;0.00;0.62;5.20;4.27;;;22.60;24.10;;;;;;2267877;61;20470;-74
2022/11/13 06:57:38;0.00;0.00;0.62;0.00;0.00;0.62;4.50;4.10;;;22.60;24.10;;;;;;2267997;61;20370;-72
2022/11/13 07:00:42;0.00;0.00;0.62;0.00;0.00;0.62;5.30;4.77;;;22.60;24.10;;;;;;2266442;61;20452;-69
2022/11/13 07:03:47;0.00;0.00;0.62;0.00;0.00;0.62;4.27;3.87;;;22.60;24.20;;;;;;2317670;53;20391;-74
2022/11/13 07:06:50;0.00;0.00;0.62;0.00;0.00;0.62;5.00;4.60;;;22.60;24.20;;;;;;2452678;53;21019;-72
2022/11/13 07:09:54;0.00;0.00;0.62;0.00;0.00;0.62;5.37;4.10;;;22.60;24.20;;;;;;2267632;61;20819;-70
2022/11/13 07:12:58;0.00;0.00;0.62;0.00;0.00;0.62;4.60;3.90;;;22.50;24.20;;;;;;2267235;61;20378;-72
2022/11/13 07:16:04;0.00;0.00;0.62;0.00;0.00;0.62;6.63;4.60;;;22.60;24.30;;;;;;2267925;61;20421;-72
2022/11/13 07:19:09;0.00;0.00;0.62;0.00;0.00;0.62;5.33;4.83;;;22.50;24.20;;;;;;2267072;61;20390;-68
2022/11/13 07:22:13;0.00;0.00;0.62;0.00;0.00;0.62;7.40;4.57;;;22.50;24.20;;;;;;2268086;61;20449;-74
2022/11/13 07:25:16;0.00;0.00;0.62;0.00;0.00;0.62;4.73;4.13;;;22.50;24.20;;;;;;2268147;61;20887;-70
2022/11/13 07:28:20;0.00;0.00;0.62;0.00;0.00;0.62;5.43;4.40;;;22.50;24.20;;;;;;2267885;61;20363;-71
2022/11/13 07:31:24;0.00;0.00;0.62;0.00;0.00;0.62;4.90;4.37;;;22.50;24.20;;;;;;2268148;61;20358;-68
2022/11/13 07:34:29;0.00;0.00;0.62;0.00;0.00;0.62;4.17;3.77;;;22.50;24.30;;;;;;2267354;61;20476;-69
2022/11/13 07:37:32;0.00;0.00;0.62;0.00;0.00;0.62;5.03;4.00;;;22.50;24.30;;;;;;2267886;61;20359;-72
2022/11/13 07:40:37;0.00;0.00;0.62;0.00;0.00;0.62;5.10;4.60;;;22.50;24.30;;;;;;2267298;61;20363;-73
2022/11/13 07:43:41;0.00;0.00;0.62;0.00;0.00;0.62;4.77;4.27;;;22.50;24.30;;;;;;2268121;61;20390;-73
2022/11/13 07:46:44;0.00;0.00;0.62;0.00;0.00;0.62;5.10;4.17;;;22.50;24.30;;;;;;2267834;61;20899;-69
2022/11/13 07:49:49;0.00;0.00;0.62;0.00;0.00;0.62;6.03;5.33;;;22.50;24.30;;;;;;2267565;61;20363;-73
2022/11/13 07:52:58;0.00;0.00;0.62;0.00;0.00;0.62;5.50;5.00;;;22.50;24.30;;;;;;2268200;61;20383;-68
2022/11/13 07:56:03;0.00;0.00;0.62;0.00;0.00;0.62;4.50;4.10;;;22.50;24.30;;;;;;2266786;61;20359;-69
2022/11/13 07:59:07;0.00;0.00;0.62;0.00;0.00;0.62;5.63;4.87;;;22.50;24.40;;;;;;2267984;61;20358;-72
2022/11/13 08:02:14;0.00;0.00;0.62;0.00;0.00;0.62;5.27;4.10;;;22.50;24.40;;;;;;2267307;61;20417;-69
2022/11/13 08:05:19;0.00;0.00;0.62;0.00;0.00;0.62;5.83;4.60;;;22.50;24.40;;;;;;2268063;61;20890;-67
2022/11/13 08:08:23;0.00;0.00;0.62;0.00;0.00;0.62;6.20;5.00;;;22.50;24.40;;;;;;2267681;61;20394;-71
2022/11/13 08:11:27;0.00;0.00;0.62;0.00;0.00;0.62;5.10;4.60;;;22.50;24.40;;;;;;2267453;61;20421;-72
2022/11/13 08:14:30;0.00;0.00;0.62;0.00;0.00;0.62;5.28;4.65;;;22.50;24.40;;;;;;2267702;61;20370;-69
2022/11/13 08:17:34;0.00;0.00;0.62;0.00;0.00;0.62;5.40;4.90;;;22.50;24.40;;;;;;2267185;61;20231;-68
2022/11/13 08:20:39;0.00;0.00;0.62;0.00;0.00;0.62;8.33;5.17;;;22.50;24.30;;;;;;2268029;61;20886;-73
2022/11/13 08:23:42;0.00;0.00;0.62;0.00;0.00;0.62;9.57;6.00;;;22.60;24.30;;;;;;2267263;61;20394;-69
2022/11/13 08:26:46;0.00;0.00;0.62;0.00;0.00;0.62;8.10;4.73;;;22.60;24.40;;;;;;2267604;61;20363;-72
2022/11/13 08:29:50;0.00;0.00;0.62;0.00;0.00;0.62;6.60;5.30;;;22.60;24.40;;;;;;2267388;61;20340;-72
2022/11/13 08:32:54;0.00;0.00;0.62;0.00;0.00;0.62;4.27;3.83;;;22.60;24.50;;;;;;2267273;61;20382;-72
2022/11/13 08:35:59;0.00;0.00;0.62;0.00;0.00;0.62;6.40;4.53;;;22.70;24.60;;;;;;2267929;61;20414;-71
2022/11/13 08:39:03;0.00;0.00;0.62;0.00;0.00;0.62;6.50;4.47;;;22.70;24.60;;;;;;2267670;61;20390;-72
2022/11/13 08:42:07;0.00;0.00;0.62;0.00;0.00;0.62;6.00;4.30;;;22.70;24.60;;;;;;2267621;61;20382;-71
2022/11/13 08:45:11;0.00;0.00;0.62;0.00;0.00;0.62;4.30;3.90;;;22.70;24.60;;;;;;2267714;61;20785;-71
2022/11/13 08:48:14;0.00;0.00;0.62;0.00;0.00;0.62;5.10;4.60;;;22.70;24.70;;;;;;2267373;61;20851;-72
2022/11/13 08:51:20;0.00;0.00;0.62;0.00;0.00;0.62;4.30;3.70;;;22.80;24.70;;;;;;2267308;61;20460;-72
2022/11/13 08:54:24;0.00;0.00;0.62;0.00;0.00;0.62;6.47;3.70;;;22.80;24.70;;;;;;2267865;61;20373;-72
2022/11/13 08:57:27;0.00;0.00;0.62;0.00;0.00;0.62;5.13;3.53;;;22.80;24.70;;;;;;2267409;61;20501;-72
2022/11/13 09:00:32;0.00;0.00;0.62;0.00;0.00;0.62;4.73;4.13;;;22.80;24.80;;;;;;2267408;61;20398;-72
2022/11/13 09:03:35;0.00;0.00;0.62;0.00;0.00;0.62;4.97;3.73;;;22.80;25.20;;;;;;2266993;61;20953;-72
2022/11/13 09:06:40;0.00;0.00;0.62;0.00;0.00;0.62;4.73;3.80;;;22.90;24.80;;;;;;2268195;61;20363;-72
2022/11/13 09:09:44;0.00;0.00;0.62;0.00;0.00;0.62;3.53;3.13;;;22.90;24.80;;;;;;2266927;61;20403;-72
2022/11/13 09:12:47;0.00;0.00;0.62;0.00;0.00;0.62;3.60;3.30;;;22.90;24.80;;;;;;2268313;61;20425;-73
2022/11/13 09:15:51;0.00;0.00;0.62;0.00;0.00;0.62;4.10;3.70;;;23.00;24.90;;;;;;2267792;61;20393;-72
2022/11/13 09:18:54;0.00;0.00;0.62;0.00;0.00;0.62;3.87;3.57;;;23.00;24.90;;;;;;2267439;61;20363;-72
2022/11/13 09:22:00;0.00;0.00;0.62;0.00;0.00;0.62;3.97;3.40;;;23.00;24.90;;;;;;2267654;61;20378;-72
2022/11/13 09:25:04;0.00;0.00;0.62;0.00;0.00;0.62;4.17;3.77;;;23.10;25.00;;;;;;2267249;61;20391;-72
2022/11/13 09:28:10;0.00;0.00;0.62;0.00;0.00;0.62;4.40;3.43;;;23.10;25.00;;;;;;2267677;61;20409;-72
2022/11/13 09:31:14;0.00;0.00;0.62;0.00;0.00;0.62;4.23;3.40;;;23.10;25.00;;;;;;2267138;61;20362;-72
2022/11/13 09:34:18;0.00;0.00;0.62;0.00;0.00;0.62;4.60;3.90;;;23.10;25.00;;;;;;2267767;61;20375;-72
2022/11/13 09:37:23;0.00;0.00;0.62;0.00;0.00;0.62;4.00;3.60;;;23.20;25.00;;;;;;2267395;61;20440;-72
2022/11/13 09:40:40;0.00;0.00;0.62;0.00;0.00;0.62;3.60;3.07;;;23.20;25.00;;;;;;2268100;61;20800;-72
2022/11/13 09:43:48;0.00;0.00;0.62;0.00;0.00;0.62;3.43;3.13;;;23.20;25.00;;;;;;2268028;61;20406;-72
2022/11/13 09:46:56;0.00;0.00;0.62;0.00;0.00;0.62;3.30;2.93;;;23.30;25.10;;;;;;2267809;61;20439;-71
2022/11/13 09:50:04;0.00;0.00;0.62;0.00;0.00;0.62;3.53;3.17;;;23.30;25.10;;;;;;2268478;61;20355;-73
2022/11/13 09:53:11;0.00;0.00;0.62;0.00;0.00;0.62;3.70;3.03;;;23.30;25.10;;;;;;2268053;61;20898;-72
2022/11/13 09:56:31;0.00;0.00;0.62;0.00;0.00;0.62;3.17;2.83;;;23.40;25.20;;;;;;2268303;61;20449;-72
2022/11/13 09:59:45;0.00;0.00;0.62;0.00;0.00;0.62;3.90;2.90;;;23.40;25.20;;;;;;2267983;61;20351;-72
2022/11/13 10:03:02;0.00;0.00;0.62;0.00;0.00;0.62;3.73;3.30;;;23.50;25.20;;;;;;2267888;61;20821;-72
2022/11/13 10:06:17;0.00;0.00;0.62;0.00;0.00;0.62;4.00;3.10;;;23.50;25.20;;;;;;2268216;61;20407;-72
2022/11/13 10:09:31;0.00;0.00;0.62;0.00;0.00;0.62;4.40;3.33;;;23.50;25.20;;;;;;2267984;61;20367;-72
2022/11/13 10:12:35;0.00;0.00;0.62;0.00;0.00;0.62;4.33;2.90;;;23.60;25.30;;;;;;2268282;61;20444;-72
2022/11/13 10:15:40;0.00;0.00;0.62;0.00;0.00;0.62;4.10;2.80;;;23.60;25.20;;;;;;2268316;61;20888;-72
2022/11/13 10:18:47;0.00;0.00;0.62;0.00;0.00;0.62;4.07;3.13;;;23.70;25.30;;;;;;2268045;61;20853;-72
2022/11/13 10:21:58;0.00;0.00;0.62;0.00;0.00;0.62;4.10;3.13;;;23.70;25.30;;;;;;2268064;61;21004;-72
2022/11/13 10:25:14;0.00;0.00;0.62;0.00;0.00;0.62;4.10;2.43;;;23.70;25.30;;;;;;2267912;61;20386;-72
2022/11/13 10:28:23;0.00;0.00;0.62;0.00;0.00;0.62;3.53;3.23;;;23.80;25.40;;;;;;2268565;61;20366;-73
2022/11/13 10:31:39;0.00;0.00;0.62;0.00;0.00;0.62;4.43;3.50;;;23.80;25.40;;;;;;2267866;61;20363;-71
2022/11/13 10:34:46;0.00;0.00;0.62;0.00;0.00;0.62;3.03;2.60;;;23.90;25.40;;;;;;2268408;61;20925;-70
2022/11/13 10:38:00;0.00;0.00;0.62;0.00;0.00;0.62;3.63;3.33;;;23.90;25.40;;;;;;2268092;61;20510;-72
2022/11/13 10:41:09;0.00;0.00;0.62;0.00;0.00;0.62;4.60;3.33;;;24.00;25.50;;;;;;2268378;61;20386;-71
2022/11/13 10:44:32;0.00;0.00;0.62;0.00;0.00;0.62;3.93;3.53;;;24.00;25.40;;;;;;2268005;61;20474;-70
2022/11/13 10:47:44;0.00;0.00;0.62;0.00;0.00;0.62;4.43;3.83;;;24.10;25.50;;;;;;2268043;61;20413;-73
2022/11/13 10:51:03;0.00;0.00;0.62;0.00;0.00;0.62;3.37;2.93;;;24.10;25.40;;;;;;2268323;61;20444;-71
2022/11/13 10:54:25;0.00;0.00;0.62;0.00;0.00;0.62;5.07;3.10;;;24.10;25.90;;;;;;2267509;61;20437;-75
2022/11/13 10:57:33;0.00;0.00;0.62;0.00;0.00;0.62;4.70;3.70;;;24.20;25.40;;;;;;2268561;61;20714;-69
2022/11/13 11:00:40;0.00;0.00;0.62;0.00;0.00;0.62;3.50;3.20;;;24.30;25.50;;;;;;2267494;61;20429;-72
2022/11/13 11:03:49;0.00;0.00;0.62;0.00;0.00;0.62;3.73;3.30;;;24.30;25.40;;;;;;2268055;61;20452;-67
2022/11/13 11:06:54;0.00;0.00;0.62;0.00;0.00;0.62;5.23;4.17;;;24.40;26.00;;;;;;2267817;61;20351;-70
2022/11/13 11:09:57;0.00;0.00;0.62;0.00;0.00;0.62;5.30;4.80;;;24.40;25.40;;;;;;2267450;61;20447;-66
2022/11/13 11:13:08;0.00;0.00;0.62;0.00;0.00;0.62;5.10;4.17;;;24.50;25.40;;;;;;2267763;61;20414;-69
2022/11/13 11:16:19;0.00;0.00;0.62;0.00;0.00;0.62;3.90;3.33;;;24.50;25.30;;;;;;2267763;61;20421;-68
2022/11/13 11:19:27;0.00;0.00;0.62;0.00;0.00;0.62;6.10;4.03;;;24.60;25.40;;;;;;2267943;61;20444;-65
2022/11/13 11:22:35;0.00;0.00;0.62;0.00;0.00;0.62;4.07;3.50;;;24.60;25.40;;;;;;2267562;61;20465;-65
2022/11/13 11:25:42;0.00;0.00;0.62;0.00;0.00;0.62;4.50;3.73;;;24.70;25.40;;;;;;2268245;61;20467;-67
2022/11/13 11:28:56;0.00;0.00;0.62;0.00;0.00;0.62;4.50;3.80;;;24.70;25.30;;;;;;2267953;61;20434;-66
2022/11/13 11:32:10;0.00;0.00;0.62;0.00;0.00;0.62;4.47;3.67;;;24.70;25.30;;;;;;2267745;61;20367;-66
2022/11/13 11:35:20;0.00;0.00;0.62;0.00;0.00;0.62;3.63;3.20;;;24.80;25.30;;;;;;2267779;61;20352;-72
2022/11/13 11:38:28;0.00;0.00;0.62;0.00;0.00;0.62;4.43;3.97;;;24.80;25.20;;;;;;2267795;61;20367;-69
2022/11/13 11:41:39;0.00;0.00;0.62;0.00;0.00;0.62;5.17;4.07;;;24.90;25.30;;;;;;2267637;61;20355;-70
2022/11/13 11:45:03;0.00;0.00;0.62;0.00;0.00;0.62;4.70;4.30;;;24.90;25.20;;;;;;2267338;61;20476;-70
2022/11/13 11:48:12;0.00;0.00;0.62;0.00;0.00;0.62;4.37;3.60;;;24.90;25.20;;;;;;2268031;61;20359;-70
2022/11/13 11:51:24;0.00;0.00;0.62;0.00;0.00;0.62;4.70;3.67;;;24.90;25.20;;;;;;2267806;61;20363;-69
2022/11/13 11:54:40;0.00;0.00;0.62;0.00;0.00;0.62;4.57;3.87;;;24.90;25.10;;;;;;2267496;61;20350;-70
2022/11/13 11:57:53;0.00;0.00;0.62;0.00;0.00;0.62;4.03;3.63;;;25.00;25.20;;;;;;2268113;61;20359;-69
2022/11/13 12:01:12;0.00;0.00;0.62;0.00;0.00;0.62;4.13;3.73;;;25.00;25.10;;;;;;2267102;61;20752;-69
2022/11/13 12:04:33;0.00;0.00;0.62;0.00;0.00;0.62;5.60;4.00;;;25.00;25.10;;;;;;2267822;61;20387;-69
2022/11/13 12:08:01;0.00;0.00;0.62;0.00;0.00;0.62;4.73;3.97;;;25.00;25.00;;;;;;2267078;61;20355;-69
2022/11/13 12:11:15;0.00;0.00;0.62;0.00;0.00;0.62;3.93;3.17;;;25.10;25.10;;;;;;2267691;61;20766;-69
2022/11/13 12:14:34;0.00;0.00;0.62;0.00;0.00;0.62;5.47;4.07;;;25.10;25.10;;;;;;2267258;61;20775;-70
2022/11/13 12:17:52;0.00;0.00;0.62;0.00;0.00;0.62;4.07;3.67;;;25.10;25.00;;;;;;2268232;61;20425;-70